Etusivu
METAR-TAF:

METAR-TAF

Lentoasemat :

Malén kansainvälinen lentoasema

Malé, Malediivit

Leveyspiiri: 04-12N, Pituuspiiri: 073-32E, korkeus merenpinnasta: 2 m

Tämänhetkinen sää

Tämä raportti tehtiin 30 minuuttia sitten, kello 20.00 UTC
Tuuli 3 kn pohjoisesta
Lämpötila 28°C
Kosteus 79%
Ilmanpaine 1011 hPa
Näkyvyys 10 km tai enemmän
Muutamia pilviä 1800 ft:n korkeudessa

METAR: VRMM 212000Z 36003KT 9999 FEW018 28/24 Q1011 NOSIG

Aika: 01:30 (20:30 UTC)

Sääennuste

Tämä raportti tehtiin 15 tuntia ja 30 minuuttia sitten, kello 05.00 UTC
Ennuste voimassa 21. päivästä klo 06 UTC - 22. päivään klo 12 UTC
Tuuli 5 kn pohjoisen/luoteesta
Näkyvyys 10 km tai enemmän
Muutamia pilviä 1800 ft:n korkeudessa
Ajoittain
21. päivästä klo 10 UTC - 21. päivään klo 16 UTC
Näkyvyys: 5000 m
Muutamia pilviä 1800 ft:n korkeudessa, Cumulonimbus.
heikkoja vesikuuroja

TAF: VRMM 210500Z 2106/2212 33005KT 9999 FEW018 TEMPO 2110/2116 5000 -SHRA FEW018CB

Säähavainnot ja -ennusteet yli 4000 lentoasemalta (METAR- ja TAF-raportit).

Käytössä olevat sääasemat on merkitty karttaan keltaisilla ja punaisilla pisteillä.

Aseta hiiri pisteen päälle nähdäksesi sääaseman nimen.

Klikkaa sitten nähdäksesi säähavainnot ja -ennusteet.

Kartan vaihtaminen: klikkaa mustalla rastilla varustettuja vihreitä pisteitä, niin voit zoomata sisään; viivalla varustettua vihreää pistettä, niin voit zoomata ulos tai vihreitä nuolia, niin pääset viereisille kartoille.


METAR-TAF: